Time;durP1;ratioP1;P1;durP2;ratioP2;P2;SDS_P1;SDS_P2;PMS_P1;PMS_P2;Temp;Humidity;BMP_temperature;BMP_pressure;BME280_temperature;BME280_humidity;BME280_pressure;Samples;Min_cycle;Max_cycle;Signal;HPM_P1;HPM_P2
2023/08/28 08:10:36;;;;;;;3.10;1.55;;;26.40;99.90;;;;;;4932115;23;20248;-69
2023/08/28 08:13:04;;;;;;;2.63;1.10;;;26.90;99.90;;;;;;4922150;29;20706;-74
2023/08/28 08:15:31;;;;;;;1.00;0.73;;;27.20;99.90;;;;;;4916167;29;20225;-76
2023/08/28 08:17:58;;;;;;;2.90;0.60;;;27.10;99.90;;;;;;4909514;29;20210;-74
2023/08/28 08:20:25;;;;;;;2.25;1.00;;;27.30;99.90;;;;;;4904264;29;20242;-73
2023/08/28 08:22:52;;;;;;;2.20;0.80;;;27.50;99.90;;;;;;4898364;29;20627;-73
2023/08/28 08:25:19;;;;;;;1.42;0.85;;;27.30;99.90;;;;;;4910987;29;20316;-74
2023/08/28 08:27:50;;;;;;;1.48;0.50;;;26.90;99.90;;;;;;4909307;29;20676;-72
2023/08/28 08:30:17;;;;;;;3.70;0.60;;;27.10;99.90;;;;;;4905602;29;20238;-73
2023/08/28 08:32:44;;;;;;;3.35;0.60;;;27.20;99.90;;;;;;4898345;29;20250;-74
2023/08/28 08:35:12;;;;;;;1.63;0.55;;;27.30;99.90;;;;;;4898015;29;20230;-71
2023/08/28 08:37:39;;;;;;;1.30;0.60;;;27.60;99.90;;;;;;4904962;29;20217;-74
2023/08/28 08:40:12;;;;;;;1.13;0.65;;;27.70;99.90;;;;;;4905451;29;20657;-70
2023/08/28 08:42:39;;;;;;;1.60;0.57;;;27.50;99.60;;;;;;4897721;29;20325;-72
2023/08/28 08:45:09;;;;;;;1.48;0.75;;;27.10;99.90;;;;;;4907915;29;20320;-70
2023/08/28 08:47:38;;;;;;;1.25;0.70;;;26.80;99.90;;;;;;4906310;29;20221;-69
2023/08/28 08:50:07;;;;;;;2.55;0.75;;;26.20;99.90;;;;;;4900737;29;21124;-70
2023/08/28 08:52:38;;;;;;;2.17;0.70;;;26.50;99.90;;;;;;4897881;29;20319;-72
2023/08/28 08:55:12;;;;;;;1.42;0.80;;;26.40;99.90;;;;;;4910201;29;20258;-75
2023/08/28 08:57:46;;;;;;;2.35;0.90;;;26.60;99.90;;;;;;4906732;29;20210;-71
2023/08/28 09:00:18;;;;;;;1.30;0.60;;;26.60;99.90;;;;;;4900832;29;20301;-71
2023/08/28 09:02:45;;;;;;;1.20;0.90;;;26.60;99.90;;;;;;4922418;29;20241;-70
2023/08/28 09:05:14;;;;;;;1.80;0.57;;;27.00;99.90;;;;;;4910998;29;20312;-71
2023/08/28 09:07:41;;;;;;;1.85;0.50;;;26.80;99.20;;;;;;4907209;29;20798;-71
2023/08/28 09:10:08;;;;;;;0.70;0.60;;;26.70;97.50;;;;;;4900579;29;20301;-72
2023/08/28 09:12:35;;;;;;;1.75;0.50;;;26.60;98.40;;;;;;4897979;29;20736;-73
2023/08/28 09:15:04;;;;;;;1.33;0.50;;;26.00;99.90;;;;;;4911207;29;20270;-70
2023/08/28 09:17:37;;;;;;;1.52;0.50;;;26.20;99.90;;;;;;4907186;29;20217;-70
2023/08/28 09:20:13;;;;;;;1.23;0.55;;;26.40;98.90;;;;;;4899083;29;20263;-73
2023/08/28 09:22:44;;;;;;;0.70;0.50;;;26.10;99.90;;;;;;4899255;29;20316;-74
2023/08/28 09:25:11;;;;;;;4.30;0.80;;;26.20;98.70;;;;;;4909305;29;20276;-71
2023/08/28 09:27:41;;;;;;;1.65;0.50;;;25.80;98.90;;;;;;4906347;29;20766;-74
2023/08/28 09:30:12;;;;;;;2.25;0.75;;;25.80;99.90;;;;;;4902242;29;20240;-73
2023/08/28 09:32:46;;;;;;;1.92;0.93;;;25.90;98.70;;;;;;4902645;29;20665;-69
2023/08/28 09:35:15;;;;;;;0.57;0.40;;;25.60;99.50;;;;;;4915532;29;20227;-74
2023/08/28 09:37:42;;;;;;;2.53;0.63;;;25.10;99.90;;;;;;4912288;29;20212;-73
2023/08/28 09:40:10;;;;;;;1.42;0.85;;;24.70;99.90;;;;;;4921041;29;20240;-72
2023/08/28 09:42:37;;;;;;;1.10;0.60;;;24.50;99.90;;;;;;4906767;29;20320;-70
2023/08/28 09:45:07;;;;;;;0.93;0.65;;;24.30;99.90;;;;;;4908332;29;20262;-73
2023/08/28 09:47:34;;;;;;;1.27;0.70;;;24.00;99.90;;;;;;4907873;29;20238;-72
2023/08/28 09:50:04;;;;;;;1.00;0.70;;;23.90;99.90;;;;;;4902409;29;20753;-69
2023/08/28 09:52:31;;;;;;;1.60;0.60;;;23.70;99.90;;;;;;4902670;29;20206;-70
2023/08/28 09:55:04;;;;;;;2.03;0.60;;;23.50;99.90;;;;;;4912510;29;20237;-71
2023/08/28 09:57:31;;;;;;;1.27;0.68;;;23.20;99.90;;;;;;4912766;29;20202;-69
2023/08/28 09:59:58;;;;;;;0.65;0.60;;;23.00;99.90;;;;;;4902287;29;20234;-71
2023/08/28 10:02:27;;;;;;;0.77;0.50;;;23.00;99.90;;;;;;4902602;29;20752;-71
2023/08/28 10:04:54;;;;;;;1.02;0.50;;;22.90;99.90;;;;;;4912285;29;20704;-72
2023/08/28 10:07:24;;;;;;;0.90;0.43;;;22.90;99.90;;;;;;4914371;29;20234;-72
2023/08/28 10:09:53;;;;;;;0.40;0.40;;;22.70;99.90;;;;;;4905813;29;20304;-71
2023/08/28 10:12:22;;;;;;;0.90;0.50;;;22.90;99.50;;;;;;4917638;29;20698;-72
2023/08/28 10:14:54;;;;;;;0.63;0.50;;;22.90;99.90;;;;;;4918379;29;20621;-72
2023/08/28 10:17:23;;;;;;;1.30;0.50;;;22.90;99.40;;;;;;4917390;29;20759;-72
2023/08/28 10:19:56;;;;;;;2.35;0.60;;;22.70;99.90;;;;;;4918133;29;20249;-72
2023/08/28 10:22:25;;;;;;;1.00;0.30;;;22.60;99.90;;;;;;4917880;29;20316;-70
2023/08/28 10:24:56;;;;;;;0.50;0.30;;;22.50;99.90;;;;;;4917721;29;20248;-71
2023/08/28 10:27:23;;;;;;;0.30;0.30;;;22.60;99.90;;;;;;4918034;29;20213;-71
2023/08/28 10:29:50;;;;;;;0.82;0.50;;;22.70;99.90;;;;;;4919687;29;20316;-70
2023/08/28 10:32:19;;;;;;;0.93;0.50;;;22.90;99.90;;;;;;4926296;29;20205;-70
2023/08/28 10:34:47;;;;;;;1.27;0.40;;;23.20;99.90;;;;;;4917704;29;20287;-72
2023/08/28 10:37:14;;;;;;;0.50;0.40;;;23.30;99.90;;;;;;4917592;29;20252;-74
2023/08/28 10:39:44;;;;;;;0.40;0.40;;;23.60;99.90;;;;;;4927053;29;20672;-70
2023/08/28 10:42:15;;;;;;;0.57;0.43;;;23.70;98.90;;;;;;4935912;29;20244;-70
2023/08/28 10:44:43;;;;;;;2.05;0.60;;;23.80;99.90;;;;;;4917501;29;20265;-69
2023/08/28 10:47:15;;;;;;;2.42;0.60;;;23.70;99.90;;;;;;4917535;29;20625;-71
2023/08/28 10:49:42;;;;;;;1.02;0.52;;;23.70;99.70;;;;;;4918067;29;20725;-70
2023/08/28 10:52:10;;;;;;;0.40;0.40;;;23.60;99.90;;;;;;4917158;29;20642;-70
2023/08/28 10:54:38;;;;;;;0.98;0.50;;;23.50;99.90;;;;;;4917371;29;20269;-70
2023/08/28 10:57:10;;;;;;;1.23;0.50;;;23.40;99.90;;;;;;4917984;29;20209;-70
2023/08/28 10:59:44;;;;;;;4.03;0.50;;;23.30;99.90;;;;;;4917393;29;20206;-71
2023/08/28 11:02:11;;;;;;;0.82;0.30;;;23.20;99.70;;;;;;4917514;29;20296;-70
2023/08/28 11:04:39;;;;;;;1.85;0.35;;;23.00;99.80;;;;;;4916563;29;20269;-70
2023/08/28 11:07:07;;;;;;;1.95;0.40;;;23.00;99.70;;;;;;4916695;29;20612;-70
2023/08/28 11:09:39;;;;;;;0.95;0.40;;;23.10;99.70;;;;;;4917037;29;20236;-71
2023/08/28 11:12:26;;;;;;;1.08;0.40;;;23.00;98.70;;;;;;4917172;29;20296;-71
2023/08/28 11:15:06;;;;;;;0.40;0.30;;;23.10;97.90;;;;;;4917105;29;20774;-72
2023/08/28 11:17:34;;;;;;;0.60;0.38;;;23.10;99.00;;;;;;4916932;29;20668;-72
2023/08/28 11:20:05;;;;;;;1.08;0.40;;;23.10;99.40;;;;;;4911784;29;20338;-72
2023/08/28 11:22:33;;;;;;;0.85;0.50;;;23.20;99.90;;;;;;4919039;29;20644;-72
2023/08/28 11:25:00;;;;;;;1.38;0.50;;;23.50;99.90;;;;;;4916497;29;20241;-73
2023/08/28 11:27:43;;;;;;;1.95;0.43;;;23.80;99.80;;;;;;4916556;29;20233;-72
2023/08/28 11:30:11;;;;;;;0.43;0.32;;;23.90;99.90;;;;;;4915984;29;20220;-74
2023/08/28 11:32:40;;;;;;;1.52;0.50;;;24.00;99.00;;;;;;4916023;29;20309;-72
2023/08/28 11:35:09;;;;;;;0.80;0.40;;;24.00;99.90;;;;;;4909242;29;20230;-73
2023/08/28 11:37:36;;;;;;;0.40;0.40;;;24.00;99.60;;;;;;4921802;29;20651;-73
2023/08/28 11:40:06;;;;;;;3.55;0.50;;;24.10;99.60;;;;;;4922968;29;20214;-74
2023/08/28 11:42:34;;;;;;;0.93;0.43;;;23.90;99.90;;;;;;4916100;29;20217;-72
2023/08/28 11:45:04;;;;;;;0.50;0.40;;;24.10;98.60;;;;;;4916076;29;20269;-71
2023/08/28 11:47:32;;;;;;;1.65;0.40;;;24.10;98.10;;;;;;4916374;29;20209;-73
2023/08/28 11:50:00;;;;;;;0.68;0.38;;;24.00;98.60;;;;;;4915768;29;20561;-74
2023/08/28 11:52:27;;;;;;;1.23;0.40;;;23.80;99.90;;;;;;4916145;29;20237;-72
2023/08/28 11:55:00;;;;;;;1.95;0.70;;;23.80;99.90;;;;;;4915468;29;20316;-71
2023/08/28 11:57:27;;;;;;;2.00;0.70;;;23.70;99.90;;;;;;4916274;29;20252;-73
2023/08/28 11:59:56;;;;;;;1.23;0.50;;;23.70;99.60;;;;;;4915758;29;20217;-72
2023/08/28 12:02:24;;;;;;;1.27;0.50;;;23.50;99.60;;;;;;4915207;29;20730;-74
2023/08/28 12:04:51;;;;;;;2.53;0.80;;;23.50;99.90;;;;;;4920368;29;20245;-72
2023/08/28 12:07:18;;;;;;;1.15;0.70;;;23.50;99.90;;;;;;4914651;29;20296;-72
2023/08/28 12:09:47;;;;;;;1.52;0.40;;;23.70;99.90;;;;;;4915829;29;20260;-72
2023/08/28 12:12:15;;;;;;;0.82;0.63;;;23.80;99.80;;;;;;4915280;29;20249;-73
2023/08/28 12:14:44;;;;;;;0.85;0.60;;;23.90;99.40;;;;;;4919179;29;20225;-73
2023/08/28 12:17:16;;;;;;;0.60;0.40;;;23.70;98.90;;;;;;4915273;29;20212;-73
2023/08/28 12:19:44;;;;;;;1.05;0.60;;;23.60;99.90;;;;;;4915238;29;20597;-73
2023/08/28 12:22:12;;;;;;;0.88;0.50;;;23.60;99.70;;;;;;4931173;29;20647;-73
2023/08/28 12:24:43;;;;;;;0.90;0.57;;;23.50;99.90;;;;;;4915815;29;20271;-72
2023/08/28 12:27:11;;;;;;;1.95;0.50;;;23.50;99.90;;;;;;4915185;29;20245;-73
2023/08/28 12:29:38;;;;;;;1.67;0.40;;;23.60;99.90;;;;;;4914820;29;20703;-72
2023/08/28 12:32:07;;;;;;;0.93;0.50;;;23.50;99.90;;;;;;4912580;29;20225;-73
2023/08/28 12:34:37;;;;;;;0.85;0.50;;;23.60;99.90;;;;;;4915671;29;20280;-73
2023/08/28 12:37:05;;;;;;;0.50;0.40;;;23.70;99.90;;;;;;4915711;29;20220;-73
2023/08/28 12:39:33;;;;;;;0.75;0.60;;;23.80;99.90;;;;;;4915460;29;20213;-71
2023/08/28 12:42:00;;;;;;;1.00;0.50;;;23.90;98.90;;;;;;4915840;29;20259;-72
2023/08/28 12:44:28;;;;;;;0.40;0.30;;;24.00;99.20;;;;;;4915524;29;20238;-73
2023/08/28 12:46:55;;;;;;;0.85;0.50;;;23.90;99.90;;;;;;4915188;29;20220;-70
2023/08/28 12:49:22;;;;;;;2.47;0.50;;;24.00;99.50;;;;;;4915506;29;20300;-71
2023/08/28 12:51:51;;;;;;;1.48;0.60;;;24.00;97.50;;;;;;4915102;29;20248;-74
2023/08/28 12:54:19;;;;;;;1.33;0.60;;;24.00;99.00;;;;;;4914686;29;20209;-74
2023/08/28 12:56:47;;;;;;;1.35;0.57;;;24.00;99.90;;;;;;4915350;29;20216;-71
2023/08/28 12:59:14;;;;;;;1.10;0.43;;;24.00;99.00;;;;;;4915236;29;20210;-72
2023/08/28 13:01:42;;;;;;;0.70;0.45;;;24.20;99.50;;;;;;4914653;29;20240;-73
2023/08/28 13:04:09;;;;;;;1.13;0.50;;;24.30;97.60;;;;;;4922123;29;20644;-74
2023/08/28 13:06:37;;;;;;;0.70;0.50;;;24.30;99.00;;;;;;4929030;29;20213;-72
2023/08/28 13:09:07;;;;;;;0.30;0.30;;;24.50;99.00;;;;;;4914897;29;20217;-72
2023/08/28 13:11:34;;;;;;;0.75;0.57;;;24.60;98.10;;;;;;4914879;29;20288;-73
2023/08/28 13:14:02;;;;;;;0.47;0.35;;;24.60;98.80;;;;;;4918834;29;20252;-73
2023/08/28 13:16:30;;;;;;;1.13;0.88;;;24.70;99.60;;;;;;4933870;29;20233;-72
2023/08/28 13:18:56;;;;;;;1.92;1.00;;;24.40;99.90;;;;;;4917275;29;20241;-72
2023/08/28 13:21:23;;;;;;;2.40;0.80;;;24.10;99.90;;;;;;4915793;29;20253;-70
2023/08/28 13:23:50;;;;;;;1.23;1.00;;;24.00;99.90;;;;;;4917153;29;20709;-73
2023/08/28 13:26:19;;;;;;;1.27;0.82;;;23.70;99.90;;;;;;4930526;29;20720;-72
2023/08/28 13:28:45;;;;;;;3.10;0.95;;;23.50;99.90;;;;;;4918746;29;20581;-71
2023/08/28 13:31:13;;;;;;;2.63;1.30;;;23.30;99.90;;;;;;4918328;29;20252;-74
2023/08/28 13:33:40;;;;;;;1.15;1.00;;;23.20;99.90;;;;;;4917872;29;20212;-72
2023/08/28 13:36:09;;;;;;;2.47;1.40;;;23.10;99.90;;;;;;4920295;29;20317;-73
2023/08/28 13:38:36;;;;;;;1.73;1.00;;;22.90;99.90;;;;;;4928206;29;20531;-70
2023/08/28 13:41:03;;;;;;;3.78;1.20;;;22.80;99.90;;;;;;4918717;29;20297;-73
2023/08/28 13:43:32;;;;;;;5.55;1.60;;;22.80;99.90;;;;;;4918621;29;20239;-73
2023/08/28 13:45:58;;;;;;;1.63;1.30;;;22.90;99.90;;;;;;4917862;29;20348;-73
2023/08/28 13:48:25;;;;;;;2.35;1.08;;;22.90;99.90;;;;;;4917711;29;20293;-72
2023/08/28 13:50:53;;;;;;;1.92;1.10;;;22.80;99.90;;;;;;4918165;29;20768;-71
2023/08/28 13:53:20;;;;;;;2.75;1.10;;;22.80;99.90;;;;;;4918369;29;20293;-72
2023/08/28 13:55:48;;;;;;;2.47;1.02;;;23.00;99.90;;;;;;4917913;29;20320;-74
2023/08/28 13:58:15;;;;;;;2.45;1.05;;;23.30;99.90;;;;;;4918056;29;20210;-72
2023/08/28 14:00:43;;;;;;;1.85;1.10;;;23.40;99.90;;;;;;4918043;29;20202;-72
2023/08/28 14:03:10;;;;;;;1.83;1.00;;;23.50;99.90;;;;;;4918061;29;20229;-73
2023/08/28 14:05:37;;;;;;;1.27;0.70;;;23.50;99.90;;;;;;4918364;29;20324;-74
2023/08/28 14:08:05;;;;;;;1.15;0.90;;;23.40;99.90;;;;;;4917690;29;20544;-72
2023/08/28 14:10:32;;;;;;;2.88;1.17;;;23.40;99.90;;;;;;4917094;29;20268;-73
2023/08/28 14:12:59;;;;;;;2.22;1.08;;;23.50;99.90;;;;;;4919984;29;20237;-69
2023/08/28 14:15:26;;;;;;;2.13;0.90;;;23.60;99.90;;;;;;4917686;29;20280;-73
2023/08/28 14:17:54;;;;;;;1.35;0.93;;;23.70;99.90;;;;;;4916219;29;20245;-74
2023/08/28 14:20:21;;;;;;;1.80;1.00;;;23.50;99.90;;;;;;4924682;29;20708;-73
2023/08/28 14:22:47;;;;;;;2.63;0.95;;;23.50;99.90;;;;;;4928179;29;20304;-72
2023/08/28 14:25:14;;;;;;;2.00;1.00;;;23.40;99.90;;;;;;4917222;29;20328;-74
2023/08/28 14:27:41;;;;;;;1.60;0.90;;;23.30;99.90;;;;;;4913796;29;20293;-73
2023/08/28 14:30:10;;;;;;;1.05;0.80;;;23.20;99.90;;;;;;4917352;29;20237;-73
2023/08/28 14:32:37;;;;;;;1.73;0.90;;;23.20;99.90;;;;;;4917138;29;20269;-74
2023/08/28 14:35:06;;;;;;;1.63;0.80;;;23.20;99.90;;;;;;4929923;29;20268;-73
2023/08/28 14:37:33;;;;;;;0.63;0.60;;;23.20;99.90;;;;;;4916726;29;20693;-73
2023/08/28 14:40:00;;;;;;;1.80;0.75;;;23.20;99.90;;;;;;4917195;29;20740;-73
2023/08/28 14:42:27;;;;;;;3.67;0.82;;;23.20;99.90;;;;;;4917176;29;20297;-70
2023/08/28 14:44:54;;;;;;;1.75;0.77;;;23.20;99.90;;;;;;4917388;29;20328;-74
2023/08/28 14:47:20;;;;;;;1.50;0.90;;;23.20;99.90;;;;;;4929117;29;20264;-69
2023/08/28 14:49:47;;;;;;;1.88;1.00;;;23.20;99.90;;;;;;4902833;29;20300;-72
2023/08/28 14:52:16;;;;;;;0.88;0.60;;;23.10;99.90;;;;;;4916949;29;20747;-72
2023/08/28 14:54:42;;;;;;;1.63;0.60;;;23.20;99.90;;;;;;4909276;29;20325;-73
2023/08/28 14:57:09;;;;;;;1.95;0.65;;;23.10;99.90;;;;;;4917496;29;20295;-70
2023/08/28 14:59:36;;;;;;;0.80;0.60;;;22.90;99.90;;;;;;4916000;29;20252;-74
2023/08/28 15:02:05;;;;;;;1.30;0.70;;;22.80;99.90;;;;;;4916200;29;20216;-70
2023/08/28 15:04:34;;;;;;;2.08;0.80;;;22.70;99.90;;;;;;4916874;29;20241;-74
2023/08/28 15:07:01;;;;;;;1.00;0.63;;;22.60;99.90;;;;;;4917270;29;20217;-69
2023/08/28 15:09:29;;;;;;;2.15;0.80;;;22.50;99.90;;;;;;4915839;29;20252;-70
2023/08/28 15:11:59;;;;;;;1.02;0.65;;;22.50;99.90;;;;;;4917016;29;20764;-71
2023/08/28 15:14:26;;;;;;;4.00;0.70;;;22.50;99.90;;;;;;4916089;29;20236;-73
2023/08/28 15:16:53;;;;;;;1.23;0.57;;;22.40;99.90;;;;;;4916919;29;20210;-71
2023/08/28 15:19:20;;;;;;;1.85;0.60;;;22.40;99.90;;;;;;4915970;29;20363;-72
2023/08/28 15:21:47;;;;;;;1.05;0.93;;;22.30;99.90;;;;;;4917903;29;20313;-69
2023/08/28 15:24:14;;;;;;;1.08;0.60;;;22.30;99.90;;;;;;4920840;29;20237;-72
2023/08/28 15:26:42;;;;;;;1.23;0.80;;;22.40;99.90;;;;;;4917569;29;20700;-72
2023/08/28 15:29:10;;;;;;;1.08;0.50;;;22.50;99.90;;;;;;4917351;29;20220;-73
2023/08/28 15:31:37;;;;;;;4.00;0.90;;;22.50;99.90;;;;;;4917606;29;20297;-70
2023/08/28 15:34:05;;;;;;;1.63;0.80;;;22.50;99.90;;;;;;4917827;29;20222;-73
2023/08/28 15:36:31;;;;;;;0.90;0.63;;;22.40;99.90;;;;;;4917833;29;20210;-72
2023/08/28 15:38:59;;;;;;;3.10;1.10;;;22.50;99.90;;;;;;4917973;29;20316;-70
2023/08/28 15:41:26;;;;;;;1.50;1.08;;;22.50;99.90;;;;;;4917590;29;20214;-74
2023/08/28 15:43:54;;;;;;;2.80;1.13;;;22.40;99.90;;;;;;4917108;29;20241;-70
2023/08/28 15:46:21;;;;;;;2.38;0.70;;;22.40;99.90;;;;;;4917457;29;20688;-73
2023/08/28 15:48:48;;;;;;;1.63;1.00;;;22.30;99.90;;;;;;4917555;29;20219;-70
2023/08/28 15:51:15;;;;;;;2.05;1.00;;;22.00;99.90;;;;;;4917369;29;20248;-73
2023/08/28 15:53:42;;;;;;;1.65;0.80;;;22.10;99.90;;;;;;4918081;29;20263;-73
2023/08/28 15:56:09;;;;;;;1.20;1.02;;;22.10;99.90;;;;;;4917796;29;20261;-73
2023/08/28 15:58:36;;;;;;;1.50;1.02;;;22.10;99.90;;;;;;4917820;29;20265;-73
2023/08/28 16:01:04;;;;;;;3.08;1.13;;;22.00;99.90;;;;;;4917977;29;20248;-72
2023/08/28 16:03:31;;;;;;;2.65;1.00;;;22.10;99.90;;;;;;4917171;29;20254;-73
2023/08/28 16:06:03;;;;;;;1.58;1.48;;;22.00;99.90;;;;;;4917294;29;20597;-73
2023/08/28 16:08:30;;;;;;;1.70;1.60;;;22.10;99.90;;;;;;4917732;29;20213;-72
2023/08/28 16:10:57;;;;;;;1.95;1.65;;;22.00;99.90;;;;;;4917527;29;20244;-72
2023/08/28 16:13:24;;;;;;;2.83;1.67;;;22.00;99.90;;;;;;4917400;29;20241;-72
2023/08/28 16:15:51;;;;;;;1.65;1.55;;;21.90;99.90;;;;;;4917230;29;20226;-72
2023/08/28 16:18:19;;;;;;;2.00;1.52;;;21.70;99.90;;;;;;4917229;29;20206;-72
2023/08/28 16:20:47;;;;;;;2.70;1.55;;;21.60;99.90;;;;;;4917512;29;20233;-72
2023/08/28 16:23:15;;;;;;;1.77;1.67;;;21.60;99.90;;;;;;4917196;29;20248;-72
2023/08/28 16:25:42;;;;;;;1.58;1.40;;;21.50;99.90;;;;;;4917242;29;20333;-73
2023/08/28 16:28:10;;;;;;;2.67;1.50;;;21.60;99.90;;;;;;4917426;29;20245;-73
2023/08/28 16:30:39;;;;;;;2.50;1.80;;;21.60;99.90;;;;;;4917281;29;20256;-71
2023/08/28 16:33:06;;;;;;;1.83;1.73;;;21.60;99.90;;;;;;4917183;29;20241;-72
2023/08/28 16:35:34;;;;;;;2.08;1.77;;;21.60;99.90;;;;;;4917001;29;20317;-73
2023/08/28 16:38:01;;;;;;;1.65;1.55;;;21.70;99.90;;;;;;4917228;29;20242;-72
2023/08/28 16:40:29;;;;;;;1.40;1.30;;;21.70;99.90;;;;;;4917091;29;20217;-72
2023/08/28 16:42:56;;;;;;;1.70;1.40;;;21.70;99.90;;;;;;4917153;29;20212;-72
2023/08/28 16:45:23;;;;;;;2.10;1.80;;;21.60;99.90;;;;;;4917109;29;20249;-73
2023/08/28 16:47:50;;;;;;;2.78;1.60;;;21.70;99.90;;;;;;4916848;29;20291;-72
2023/08/28 16:50:17;;;;;;;1.50;1.40;;;21.40;99.90;;;;;;4916735;29;20276;-70
2023/08/28 16:52:45;;;;;;;1.50;1.40;;;21.40;99.90;;;;;;4917118;29;20237;-70
2023/08/28 16:55:12;;;;;;;1.42;1.33;;;21.40;99.90;;;;;;4916658;29;20658;-70
2023/08/28 16:57:39;;;;;;;1.70;1.60;;;21.30;99.90;;;;;;4916247;29;20625;-72
2023/08/28 17:00:07;;;;;;;1.50;1.40;;;21.10;99.90;;;;;;4916667;29;20241;-70
2023/08/28 17:02:34;;;;;;;1.35;1.25;;;21.10;99.90;;;;;;4916591;29;20256;-70
2023/08/28 17:05:01;;;;;;;1.45;1.35;;;21.10;99.90;;;;;;4916458;29;20248;-72
2023/08/28 17:07:28;;;;;;;1.50;1.40;;;20.80;99.90;;;;;;4916255;29;20241;-72
2023/08/28 17:09:56;;;;;;;1.40;1.30;;;20.60;99.90;;;;;;4910644;29;20303;-71
2023/08/28 17:12:23;;;;;;;1.58;1.48;;;20.40;99.90;;;;;;4911731;29;20237;-73
2023/08/28 17:14:51;;;;;;;2.08;1.50;;;20.20;99.90;;;;;;4916367;29;20312;-72
2023/08/28 17:17:17;;;;;;;2.10;1.50;;;20.00;99.90;;;;;;4916181;29;20237;-71
2023/08/28 17:19:44;;;;;;;1.70;1.60;;;19.90;99.90;;;;;;4928937;29;20213;-73
2023/08/28 17:22:11;;;;;;;1.20;1.10;;;19.60;99.90;;;;;;4911906;29;20308;-72
2023/08/28 17:24:38;;;;;;;1.45;1.17;;;19.50;99.90;;;;;;4916493;29;20237;-75
2023/08/28 17:27:07;;;;;;;1.50;1.40;;;19.40;99.90;;;;;;4916065;29;20335;-73
2023/08/28 17:29:33;;;;;;;1.42;1.33;;;19.40;99.90;;;;;;4929786;29;20301;-73
2023/08/28 17:32:00;;;;;;;1.40;1.15;;;19.30;99.90;;;;;;4915837;29;20706;-74
2023/08/28 17:34:27;;;;;;;1.23;1.13;;;19.30;99.90;;;;;;4916011;29;20261;-73
2023/08/28 17:36:54;;;;;;;2.17;1.20;;;19.30;99.90;;;;;;4916208;29;20241;-71
2023/08/28 17:39:25;;;;;;;1.30;1.20;;;19.30;99.90;;;;;;4915991;29;20245;-74
2023/08/28 17:41:52;;;;;;;1.35;1.25;;;19.20;99.90;;;;;;4902840;29;20216;-71
2023/08/28 17:44:20;;;;;;;2.63;1.30;;;19.30;99.90;;;;;;4916127;29;20205;-74
2023/08/28 17:46:48;;;;;;;1.33;1.00;;;19.20;99.90;;;;;;4915721;29;20324;-71
2023/08/28 17:49:14;;;;;;;2.40;1.35;;;19.30;99.90;;;;;;4915702;29;20247;-71
2023/08/28 17:51:42;;;;;;;1.92;1.50;;;19.30;99.90;;;;;;4901291;29;20206;-74
2023/08/28 17:54:09;;;;;;;1.33;1.23;;;19.20;99.90;;;;;;4915872;29;20681;-75
2023/08/28 17:56:36;;;;;;;1.92;1.40;;;19.10;99.90;;;;;;4915377;29;20297;-72
2023/08/28 17:59:04;;;;;;;2.13;1.57;;;19.00;99.90;;;;;;4915686;29;20565;-71
2023/08/28 18:01:32;;;;;;;2.87;1.53;;;18.90;99.90;;;;;;4915153;29;20238;-73
2023/08/28 18:03:59;;;;;;;2.00;1.27;;;18.90;99.90;;;;;;4915561;29;20296;-73
2023/08/28 18:06:26;;;;;;;2.75;1.40;;;18.80;99.90;;;;;;4915380;29;20333;-71
2023/08/28 18:08:54;;;;;;;1.30;1.20;;;18.60;99.90;;;;;;4916604;29;20566;-74
2023/08/28 18:11:20;;;;;;;2.08;1.50;;;18.60;99.90;;;;;;4919028;29;20209;-74
2023/08/28 18:13:48;;;;;;;1.45;1.35;;;18.50;99.90;;;;;;4918797;29;20626;-75
2023/08/28 18:16:16;;;;;;;1.53;1.43;;;18.50;99.90;;;;;;4921538;29;20317;-74
2023/08/28 18:18:45;;;;;;;1.17;1.17;;;18.50;99.90;;;;;;4920781;29;20637;-74
2023/08/28 18:21:13;;;;;;;1.40;1.30;;;18.60;99.90;;;;;;4919062;29;20242;-71
2023/08/28 18:23:40;;;;;;;1.33;1.23;;;18.40;99.90;;;;;;4913664;29;20210;-75
2023/08/28 18:26:08;;;;;;;1.50;1.40;;;18.50;99.90;;;;;;4919141;29;20333;-73
2023/08/28 18:28:34;;;;;;;1.27;1.17;;;18.40;99.90;;;;;;4924216;29;20561;-70
2023/08/28 18:31:02;;;;;;;1.40;1.30;;;18.50;99.90;;;;;;4926018;29;20205;-72
2023/08/28 18:33:29;;;;;;;1.93;1.40;;;18.60;99.90;;;;;;4918679;29;20657;-73
2023/08/28 18:35:57;;;;;;;1.40;1.30;;;18.60;99.90;;;;;;4918525;29;20508;-74
2023/08/28 18:38:24;;;;;;;1.87;1.30;;;18.50;99.90;;;;;;4918236;29;20293;-73
2023/08/28 18:40:52;;;;;;;1.47;1.27;;;18.40;99.90;;;;;;4924748;29;20247;-72
2023/08/28 18:43:19;;;;;;;1.75;1.35;;;18.20;99.90;;;;;;4923800;29;20711;-72
2023/08/28 18:45:46;;;;;;;3.80;1.50;;;18.20;99.90;;;;;;4918898;29;20601;-74
2023/08/28 18:48:14;;;;;;;2.80;1.25;;;18.10;99.90;;;;;;4911778;29;20296;-72
2023/08/28 18:50:45;;;;;;;1.70;1.27;;;18.10;99.90;;;;;;4915273;29;20244;-72
2023/08/28 18:53:13;;;;;;;1.48;1.38;;;18.20;99.90;;;;;;4913390;29;20659;-73
2023/08/28 18:55:40;;;;;;;1.60;1.35;;;18.30;99.90;;;;;;4916961;29;20284;-72
2023/08/28 18:58:08;;;;;;;1.30;1.20;;;18.20;99.90;;;;;;4918594;29;20252;-71
2023/08/28 19:00:35;;;;;;;1.33;1.20;;;18.30;99.90;;;;;;4918731;29;20288;-71
2023/08/28 19:03:03;;;;;;;1.10;1.00;;;18.30;99.90;;;;;;4918139;29;20292;-71
2023/08/28 19:05:31;;;;;;;1.58;1.48;;;18.30;99.90;;;;;;4918161;29;20226;-73
2023/08/28 19:07:58;;;;;;;1.30;1.20;;;18.20;99.90;;;;;;4918127;29;20688;-73
2023/08/28 19:10:26;;;;;;;3.35;1.10;;;18.30;99.90;;;;;;4918311;29;20716;-74
2023/08/28 19:12:53;;;;;;;1.55;1.10;;;18.20;99.90;;;;;;4918221;29;20260;-76
2023/08/28 19:15:20;;;;;;;1.23;1.13;;;18.20;99.90;;;;;;4918238;29;20234;-73
2023/08/28 19:17:47;;;;;;;1.42;1.33;;;18.30;99.90;;;;;;4921395;29;20217;-73
2023/08/28 19:20:14;;;;;;;1.35;1.25;;;18.40;99.90;;;;;;4907756;29;20712;-71
2023/08/28 19:22:45;;;;;;;1.27;1.15;;;18.40;99.90;;;;;;4913207;29;20642;-73
2023/08/28 19:25:12;;;;;;;1.48;1.38;;;18.40;99.90;;;;;;4917547;29;20309;-71
2023/08/28 19:27:41;;;;;;;1.77;1.27;;;18.40;99.90;;;;;;4917661;29;20233;-72
2023/08/28 19:30:09;;;;;;;1.35;1.25;;;18.40;99.90;;;;;;4929301;29;20296;-71
2023/08/28 19:32:37;;;;;;;1.20;1.10;;;18.50;99.90;;;;;;4917547;29;20245;-71
2023/08/28 19:35:05;;;;;;;1.00;0.95;;;18.60;99.90;;;;;;4917735;29;20316;-71
2023/08/28 19:37:33;;;;;;;1.60;1.20;;;18.60;99.90;;;;;;4917964;29;20213;-71
2023/08/28 19:40:00;;;;;;;1.48;1.00;;;18.60;99.90;;;;;;4917729;29;20237;-73
2023/08/28 19:42:27;;;;;;;1.67;1.10;;;18.50;99.90;;;;;;4928820;29;20257;-71
2023/08/28 19:44:55;;;;;;;1.10;1.00;;;18.60;99.90;;;;;;4917797;29;20312;-72
2023/08/28 19:47:22;;;;;;;1.23;1.10;;;18.50;99.90;;;;;;4917591;29;20309;-70
2023/08/28 19:49:49;;;;;;;2.35;1.13;;;18.60;99.90;;;;;;4917586;29;20265;-72
2023/08/28 19:52:19;;;;;;;1.15;1.05;;;18.40;99.90;;;;;;4917369;29;20256;-73
2023/08/28 19:54:46;;;;;;;1.20;1.08;;;18.40;99.90;;;;;;4904320;29;20233;-72
2023/08/28 19:57:14;;;;;;;3.03;1.10;;;18.40;99.90;;;;;;4917818;29;20249;-72
2023/08/28 19:59:43;;;;;;;1.25;1.15;;;18.30;99.90;;;;;;4917522;29;20237;-72
2023/08/28 20:02:11;;;;;;;1.90;1.40;;;18.10;99.90;;;;;;4917209;29;20304;-72
2023/08/28 20:04:39;;;;;;;1.50;1.40;;;18.00;99.90;;;;;;4917852;29;20267;-74
2023/08/28 20:07:07;;;;;;;2.70;1.38;;;18.00;99.90;;;;;;4917855;29;20237;-72
2023/08/28 20:09:35;;;;;;;2.50;1.27;;;17.90;99.90;;;;;;4917351;29;20225;-73
2023/08/28 20:12:04;;;;;;;3.17;2.10;;;17.90;99.90;;;;;;4917525;29;20300;-74
2023/08/28 20:14:35;;;;;;;1.75;1.35;;;17.90;99.90;;;;;;4916176;29;20233;-72
2023/08/28 20:17:03;;;;;;;1.65;1.38;;;17.90;99.90;;;;;;4917221;29;20252;-72
2023/08/28 20:19:31;;;;;;;1.30;1.20;;;17.90;99.90;;;;;;4913895;29;20629;-71
2023/08/28 20:21:58;;;;;;;1.35;1.25;;;17.70;99.90;;;;;;4916957;29;20378;-73
2023/08/28 20:24:26;;;;;;;1.60;1.40;;;17.70;99.90;;;;;;4916401;29;20259;-73
2023/08/28 20:26:53;;;;;;;1.50;1.40;;;17.70;99.90;;;;;;4917234;29;20645;-74
2023/08/28 20:29:20;;;;;;;2.58;1.48;;;17.80;99.90;;;;;;4917469;29;20206;-72
2023/08/28 20:31:48;;;;;;;1.55;1.40;;;17.80;99.90;;;;;;4917304;29;20241;-71
2023/08/28 20:34:15;;;;;;;1.60;1.50;;;17.80;99.90;;;;;;4916583;29;20273;-72
2023/08/28 20:36:44;;;;;;;2.92;1.67;;;17.90;99.90;;;;;;4916936;29;20249;-71
2023/08/28 20:39:12;;;;;;;1.60;1.50;;;17.80;99.90;;;;;;4917368;29;20245;-70
2023/08/28 20:41:39;;;;;;;1.50;1.40;;;17.80;99.90;;;;;;4917135;29;20268;-72
2023/08/28 20:44:08;;;;;;;2.97;1.65;;;17.70;99.90;;;;;;4917018;29;20241;-72
2023/08/28 20:46:37;;;;;;;2.83;1.75;;;17.60;99.90;;;;;;4917281;29;20237;-71
2023/08/28 20:49:04;;;;;;;2.13;1.67;;;17.50;99.90;;;;;;4916945;29;20264;-72
2023/08/28 20:51:32;;;;;;;1.67;1.55;;;17.40;99.90;;;;;;4916976;29;20233;-72
2023/08/28 20:54:02;;;;;;;1.60;1.50;;;17.50;99.90;;;;;;4916682;29;20214;-72
2023/08/28 20:56:29;;;;;;;1.77;1.50;;;17.60;99.90;;;;;;4916992;29;20261;-73
2023/08/28 20:58:56;;;;;;;2.20;1.60;;;17.50;99.90;;;;;;4916977;29;20245;-72
2023/08/28 21:01:22;;;;;;;1.70;1.60;;;17.40;99.90;;;;;;4916846;29;20669;-75